GAF111 EDDB-EPRZ
Flight info
| Callsign | GAF111 |
|---|---|
| Flight time | 1h 1m |
| Altitude | 35000 |
| Route | ARSAP4B/06L ARSAP Y209 KELOD L980 ADVAB L981 ETITI |
| Aircraft | A321/M-SDE3FGHIRWY/LB1 |
Departure
| Time | 2026-05-07 17:46 |
|---|---|
| Airport | Berlin Brandenburg Airport (EDDB) |
Arrival
| Time | 2026-05-07 18:47 |
|---|---|
| Airport | Rzeszów-Jasionka Airport (EPRZ) |
| Time | Latitude | Longitude | Altitude | Speed | Heading |
|---|---|---|---|---|---|
| 2026-05-07 17:30 | 52.38024 | 13.50963 | 152 ft | 0 kts | 57° |
| 2026-05-07 17:40 | 52.38026 | 13.50968 | 152 ft | 2 kts | 57° |
| 2026-05-07 17:40 | 52.38057 | 13.51048 | 152 ft | 11 kts | 60° |
| 2026-05-07 17:41 | 52.38015 | 13.51125 | 153 ft | 12 kts | 193° |
| 2026-05-07 17:41 | 52.37942 | 13.50974 | 153 ft | 23 kts | 238° |
| 2026-05-07 17:41 | 52.37840 | 13.50710 | 152 ft | 29 kts | 237° |
| 2026-05-07 17:41 | 52.37733 | 13.50437 | 155 ft | 28 kts | 237° |
| 2026-05-07 17:42 | 52.37632 | 13.50179 | 159 ft | 26 kts | 237° |
| 2026-05-07 17:42 | 52.37541 | 13.49942 | 164 ft | 23 kts | 236° |
| 2026-05-07 17:42 | 52.37454 | 13.49725 | 167 ft | 25 kts | 237° |
| 2026-05-07 17:42 | 52.37345 | 13.49446 | 167 ft | 30 kts | 238° |
| 2026-05-07 17:43 | 52.37238 | 13.49178 | 160 ft | 25 kts | 237° |
| 2026-05-07 17:43 | 52.37142 | 13.48929 | 154 ft | 26 kts | 238° |
| 2026-05-07 17:43 | 52.37042 | 13.48676 | 148 ft | 24 kts | 229° |
| 2026-05-07 17:43 | 52.36900 | 13.48561 | 150 ft | 21 kts | 198° |
| 2026-05-07 17:44 | 52.36809 | 13.48578 | 156 ft | 8 kts | 117° |
| 2026-05-07 17:44 | 52.36808 | 13.48669 | 157 ft | 10 kts | 72° |
| 2026-05-07 17:44 | 52.36813 | 13.48690 | 157 ft | 0 kts | 68° |
| 2026-05-07 17:45 | 52.36815 | 13.48697 | 157 ft | 9 kts | 68° |
| 2026-05-07 17:45 | 52.36931 | 13.49193 | 155 ft | 82 kts | 69° |
| 2026-05-07 17:45 | 52.37216 | 13.50384 | 157 ft | 141 kts | 68° |
| 2026-05-07 17:45 | 52.37623 | 13.52045 | 479 ft | 161 kts | 69° |
| 2026-05-07 17:46 | 52.38036 | 13.53766 | 1187 ft | 163 kts | 68° |
| 2026-05-07 17:46 | 52.38442 | 13.55507 | 1897 ft | 165 kts | 68° |
| 2026-05-07 17:46 | 52.38873 | 13.57356 | 2339 ft | 185 kts | 68° |
| 2026-05-07 17:46 | 52.39356 | 13.59426 | 2603 ft | 205 kts | 68° |
| 2026-05-07 17:47 | 52.39901 | 13.61742 | 2816 ft | 230 kts | 68° |
| 2026-05-07 17:47 | 52.40499 | 13.64281 | 3238 ft | 245 kts | 68° |
| 2026-05-07 17:47 | 52.41112 | 13.66882 | 3913 ft | 250 kts | 68° |
| 2026-05-07 17:47 | 52.41741 | 13.69560 | 4599 ft | 255 kts | 68° |
| 2026-05-07 17:48 | 52.42384 | 13.72300 | 5246 ft | 259 kts | 68° |
| 2026-05-07 17:48 | 52.43035 | 13.75068 | 5929 ft | 263 kts | 68° |
| 2026-05-07 17:48 | 52.43697 | 13.77886 | 6619 ft | 267 kts | 68° |
| 2026-05-07 17:48 | 52.44406 | 13.80710 | 7264 ft | 270 kts | 65° |
| 2026-05-07 17:49 | 52.45038 | 13.83621 | 7903 ft | 274 kts | 81° |
| 2026-05-07 17:49 | 52.44930 | 13.86753 | 8613 ft | 279 kts | 107° |
| 2026-05-07 17:49 | 52.44218 | 13.89683 | 9393 ft | 282 kts | 112° |
| 2026-05-07 17:49 | 52.43443 | 13.92661 | 10161 ft | 287 kts | 113° |
| 2026-05-07 17:50 | 52.42637 | 13.95744 | 10550 ft | 303 kts | 113° |
| 2026-05-07 17:50 | 52.41794 | 13.98983 | 10949 ft | 314 kts | 113° |
| 2026-05-07 17:50 | 52.40936 | 14.02295 | 11522 ft | 319 kts | 112° |
| 2026-05-07 17:50 | 52.40063 | 14.05667 | 12092 ft | 323 kts | 113° |
| 2026-05-07 17:51 | 52.39183 | 14.09064 | 12656 ft | 326 kts | 113° |
| 2026-05-07 17:51 | 52.38291 | 14.12495 | 13224 ft | 330 kts | 113° |
| 2026-05-07 17:51 | 52.37387 | 14.15963 | 13790 ft | 333 kts | 113° |
| 2026-05-07 17:51 | 52.36471 | 14.19470 | 14293 ft | 336 kts | 113° |
| 2026-05-07 17:52 | 52.35559 | 14.22958 | 14797 ft | 339 kts | 113° |
| 2026-05-07 17:52 | 52.34625 | 14.26521 | 15311 ft | 342 kts | 114° |
| 2026-05-07 17:52 | 52.33683 | 14.30117 | 15822 ft | 345 kts | 114° |
| 2026-05-07 17:52 | 52.32734 | 14.33740 | 16337 ft | 348 kts | 114° |
| 2026-05-07 17:53 | 52.31775 | 14.37390 | 16855 ft | 351 kts | 114° |
| 2026-05-07 17:53 | 52.30808 | 14.41064 | 17360 ft | 354 kts | 114° |
| 2026-05-07 17:53 | 52.29831 | 14.44772 | 17882 ft | 356 kts | 114° |
| 2026-05-07 17:53 | 52.28850 | 14.48496 | 18381 ft | 359 kts | 114° |
| 2026-05-07 17:54 | 52.27858 | 14.52252 | 18826 ft | 361 kts | 114° |
| 2026-05-07 17:54 | 52.26857 | 14.56027 | 19282 ft | 363 kts | 114° |
| 2026-05-07 17:54 | 52.25847 | 14.59824 | 19665 ft | 368 kts | 114° |
| 2026-05-07 17:54 | 52.24825 | 14.63657 | 19898 ft | 376 kts | 114° |
| 2026-05-07 17:55 | 52.23852 | 14.67636 | 20283 ft | 380 kts | 108° |
| 2026-05-07 17:55 | 52.23190 | 14.71823 | 20716 ft | 382 kts | 101° |
| 2026-05-07 17:55 | 52.22884 | 14.76141 | 21157 ft | 385 kts | 92° |
| 2026-05-07 17:55 | 52.22899 | 14.80510 | 21585 ft | 387 kts | 89° |
| 2026-05-07 17:56 | 52.22953 | 14.84906 | 22012 ft | 389 kts | 89° |
| 2026-05-07 17:56 | 52.22994 | 14.89319 | 22429 ft | 391 kts | 90° |
| 2026-05-07 17:56 | 52.23028 | 14.93754 | 22838 ft | 392 kts | 90° |
| 2026-05-07 17:56 | 52.23057 | 14.98163 | 23242 ft | 395 kts | 90° |
| 2026-05-07 17:57 | 52.23084 | 15.02645 | 23661 ft | 396 kts | 90° |
| 2026-05-07 17:57 | 52.23103 | 15.05630 | 23898 ft | 396 kts | 90° |
| 2026-05-07 17:57 | 52.23141 | 15.11632 | 24483 ft | 395 kts | 90° |
| 2026-05-07 17:57 | 52.23169 | 15.16103 | 24906 ft | 393 kts | 90° |
| 2026-05-07 17:58 | 52.23198 | 15.20558 | 25329 ft | 393 kts | 90° |
| 2026-05-07 17:58 | 52.23223 | 15.25004 | 25740 ft | 392 kts | 90° |
| 2026-05-07 17:58 | 52.23246 | 15.29449 | 26153 ft | 391 kts | 90° |
| 2026-05-07 17:58 | 52.23264 | 15.33877 | 26554 ft | 390 kts | 91° |
| 2026-05-07 17:59 | 52.23280 | 15.38240 | 26949 ft | 390 kts | 91° |
| 2026-05-07 17:59 | 52.23297 | 15.42654 | 27339 ft | 389 kts | 91° |
| 2026-05-07 17:59 | 52.23314 | 15.47061 | 27721 ft | 389 kts | 91° |
| 2026-05-07 17:59 | 52.23331 | 15.51463 | 28106 ft | 388 kts | 91° |
| 2026-05-07 18:00 | 52.23346 | 15.55857 | 28479 ft | 388 kts | 91° |
| 2026-05-07 18:00 | 52.23358 | 15.60279 | 28694 ft | 392 kts | 91° |
| 2026-05-07 18:00 | 52.23366 | 15.64756 | 28843 ft | 397 kts | 92° |
| 2026-05-07 18:00 | 52.23373 | 15.69230 | 28980 ft | 403 kts | 92° |
| 2026-05-07 18:01 | 52.23378 | 15.73824 | 29117 ft | 408 kts | 92° |
| 2026-05-07 18:01 | 52.23379 | 15.78484 | 29259 ft | 414 kts | 92° |
| 2026-05-07 18:01 | 52.23379 | 15.83209 | 29401 ft | 419 kts | 92° |
| 2026-05-07 18:01 | 52.23300 | 15.87979 | 29542 ft | 422 kts | 98° |
| 2026-05-07 18:02 | 52.22299 | 15.97416 | 30129 ft | 422 kts | 104° |
| 2026-05-07 18:02 | 52.21739 | 16.02089 | 30447 ft | 421 kts | 105° |
| 2026-05-07 18:02 | 52.21178 | 16.06788 | 30738 ft | 421 kts | 105° |
| 2026-05-07 18:03 | 52.20627 | 16.11392 | 31012 ft | 421 kts | 105° |
| 2026-05-07 18:03 | 52.20060 | 16.16083 | 31286 ft | 421 kts | 105° |
| 2026-05-07 18:03 | 52.19493 | 16.20757 | 31559 ft | 421 kts | 105° |
| 2026-05-07 18:03 | 52.18922 | 16.25444 | 31829 ft | 421 kts | 106° |
| 2026-05-07 18:04 | 52.18352 | 16.30116 | 32090 ft | 421 kts | 106° |
| 2026-05-07 18:04 | 52.17779 | 16.34796 | 32351 ft | 421 kts | 106° |
| 2026-05-07 18:04 | 52.17204 | 16.39466 | 32609 ft | 421 kts | 106° |
| 2026-05-07 18:04 | 52.16626 | 16.44134 | 32861 ft | 421 kts | 107° |
| 2026-05-07 18:05 | 52.16047 | 16.48807 | 33108 ft | 421 kts | 107° |
| 2026-05-07 18:05 | 52.15470 | 16.53469 | 33361 ft | 421 kts | 107° |
| 2026-05-07 18:05 | 52.14890 | 16.58143 | 33526 ft | 423 kts | 107° |
| 2026-05-07 18:05 | 52.14297 | 16.62856 | 33653 ft | 426 kts | 107° |
| 2026-05-07 18:06 | 52.13702 | 16.67517 | 33803 ft | 427 kts | 109° |
| 2026-05-07 18:06 | 52.12832 | 16.72117 | 33932 ft | 424 kts | 117° |
| 2026-05-07 18:06 | 52.11579 | 16.76437 | 34065 ft | 421 kts | 125° |
| 2026-05-07 18:06 | 52.10018 | 16.80469 | 34180 ft | 421 kts | 128° |
| 2026-05-07 18:07 | 52.08423 | 16.84470 | 34296 ft | 423 kts | 128° |
| 2026-05-07 18:07 | 52.06820 | 16.88503 | 34410 ft | 426 kts | 128° |
| 2026-05-07 18:07 | 52.05206 | 16.92569 | 34526 ft | 428 kts | 128° |
| 2026-05-07 18:07 | 52.03589 | 16.96640 | 34636 ft | 431 kts | 128° |
| 2026-05-07 18:08 | 52.01962 | 17.00737 | 34753 ft | 433 kts | 128° |
| 2026-05-07 18:08 | 52.00322 | 17.04857 | 34872 ft | 434 kts | 128° |
| 2026-05-07 18:08 | 51.98702 | 17.08917 | 35012 ft | 436 kts | 128° |
| 2026-05-07 18:09 | 51.95375 | 17.17222 | 35047 ft | 444 kts | 128° |
| 2026-05-07 18:09 | 51.91986 | 17.25682 | 35046 ft | 451 kts | 128° |
| 2026-05-07 18:10 | 51.88567 | 17.34264 | 35046 ft | 456 kts | 128° |
| 2026-05-07 18:10 | 51.85112 | 17.42890 | 35042 ft | 456 kts | 128° |
| 2026-05-07 18:11 | 51.81673 | 17.51404 | 35042 ft | 455 kts | 128° |
| 2026-05-07 18:11 | 51.78198 | 17.59950 | 35048 ft | 455 kts | 129° |
| 2026-05-07 18:12 | 51.74722 | 17.68499 | 35043 ft | 456 kts | 129° |
| 2026-05-07 18:12 | 51.71242 | 17.77046 | 35056 ft | 456 kts | 129° |
| 2026-05-07 18:13 | 51.67777 | 17.85508 | 35050 ft | 456 kts | 129° |
| 2026-05-07 18:13 | 51.64273 | 17.94024 | 35051 ft | 456 kts | 129° |
| 2026-05-07 18:14 | 51.60768 | 18.02514 | 35050 ft | 455 kts | 129° |
| 2026-05-07 18:14 | 51.57254 | 18.10988 | 35051 ft | 455 kts | 129° |
| 2026-05-07 18:15 | 51.53748 | 18.19443 | 35047 ft | 455 kts | 129° |
| 2026-05-07 18:15 | 51.50232 | 18.27886 | 35042 ft | 455 kts | 130° |
| 2026-05-07 18:16 | 51.46736 | 18.36259 | 35042 ft | 454 kts | 130° |
| 2026-05-07 18:16 | 51.43213 | 18.44666 | 35038 ft | 454 kts | 130° |
| 2026-05-07 18:17 | 51.39681 | 18.53054 | 35030 ft | 454 kts | 130° |
| 2026-05-07 18:17 | 51.36145 | 18.61425 | 35028 ft | 454 kts | 130° |
| 2026-05-07 18:18 | 51.32605 | 18.69783 | 35022 ft | 454 kts | 130° |
| 2026-05-07 18:18 | 51.29085 | 18.78080 | 35019 ft | 454 kts | 130° |
| 2026-05-07 18:19 | 51.25530 | 18.86434 | 35024 ft | 455 kts | 130° |
| 2026-05-07 18:19 | 51.21975 | 18.94775 | 35017 ft | 455 kts | 131° |
| 2026-05-07 18:20 | 51.18399 | 19.03107 | 35005 ft | 455 kts | 131° |
| 2026-05-07 18:20 | 51.14812 | 19.11419 | 34999 ft | 456 kts | 131° |
| 2026-05-07 18:21 | 51.11244 | 19.19689 | 34998 ft | 456 kts | 131° |
| 2026-05-07 18:21 | 51.09460 | 19.23829 | 34794 ft | 452 kts | 131° |
| 2026-05-07 18:21 | 51.07681 | 19.27949 | 34548 ft | 450 kts | 131° |
| 2026-05-07 18:21 | 51.05909 | 19.32040 | 34314 ft | 448 kts | 131° |
| 2026-05-07 18:22 | 51.04138 | 19.36105 | 34073 ft | 447 kts | 132° |
| 2026-05-07 18:22 | 51.02967 | 19.38790 | 33904 ft | 446 kts | 132° |
| 2026-05-07 18:22 | 51.00603 | 19.44199 | 33521 ft | 446 kts | 132° |
| 2026-05-07 18:22 | 50.98836 | 19.48237 | 33240 ft | 446 kts | 132° |
| 2026-05-07 18:23 | 50.97064 | 19.52281 | 32966 ft | 446 kts | 132° |
| 2026-05-07 18:23 | 50.95319 | 19.56257 | 32697 ft | 446 kts | 132° |
| 2026-05-07 18:23 | 50.93549 | 19.60285 | 32427 ft | 446 kts | 131° |
| 2026-05-07 18:23 | 50.91777 | 19.64317 | 32160 ft | 446 kts | 131° |
| 2026-05-07 18:24 | 50.90008 | 19.68341 | 31895 ft | 446 kts | 131° |
| 2026-05-07 18:24 | 50.88232 | 19.72373 | 31626 ft | 446 kts | 131° |
| 2026-05-07 18:24 | 50.86454 | 19.76396 | 31361 ft | 446 kts | 131° |
| 2026-05-07 18:24 | 50.84677 | 19.80413 | 31084 ft | 445 kts | 131° |
| 2026-05-07 18:25 | 50.82904 | 19.84417 | 30335 ft | 444 kts | 131° |
| 2026-05-07 18:25 | 50.81129 | 19.88422 | 29370 ft | 445 kts | 131° |
| 2026-05-07 18:25 | 50.79369 | 19.92384 | 28394 ft | 447 kts | 130° |
| 2026-05-07 18:25 | 50.77576 | 19.96410 | 28056 ft | 450 kts | 130° |
| 2026-05-07 18:26 | 50.75769 | 20.00456 | 27785 ft | 453 kts | 130° |
| 2026-05-07 18:26 | 50.73949 | 20.04525 | 27512 ft | 454 kts | 130° |
| 2026-05-07 18:26 | 50.72119 | 20.08610 | 27241 ft | 456 kts | 130° |
| 2026-05-07 18:26 | 50.70285 | 20.12702 | 26983 ft | 457 kts | 130° |
| 2026-05-07 18:27 | 50.68445 | 20.16803 | 26723 ft | 459 kts | 130° |
| 2026-05-07 18:27 | 50.66594 | 20.20924 | 26454 ft | 461 kts | 130° |
| 2026-05-07 18:27 | 50.64874 | 20.25115 | 26191 ft | 466 kts | 123° |
| 2026-05-07 18:27 | 50.63512 | 20.29780 | 25945 ft | 472 kts | 116° |
| 2026-05-07 18:28 | 50.62302 | 20.34598 | 25687 ft | 473 kts | 116° |
| 2026-05-07 18:28 | 50.61082 | 20.39416 | 25445 ft | 475 kts | 116° |
| 2026-05-07 18:28 | 50.59851 | 20.44246 | 25195 ft | 476 kts | 116° |
| 2026-05-07 18:28 | 50.58610 | 20.49081 | 24951 ft | 477 kts | 116° |
| 2026-05-07 18:29 | 50.57361 | 20.53924 | 24708 ft | 479 kts | 116° |
| 2026-05-07 18:29 | 50.56108 | 20.58774 | 24463 ft | 480 kts | 116° |
| 2026-05-07 18:29 | 50.54849 | 20.63641 | 24223 ft | 479 kts | 116° |
| 2026-05-07 18:29 | 50.53594 | 20.68486 | 23988 ft | 478 kts | 116° |
| 2026-05-07 18:30 | 50.52341 | 20.73323 | 23742 ft | 477 kts | 116° |
| 2026-05-07 18:30 | 50.51117 | 20.78052 | 23121 ft | 470 kts | 116° |
| 2026-05-07 18:30 | 50.49892 | 20.82773 | 22236 ft | 465 kts | 116° |
| 2026-05-07 18:30 | 50.48671 | 20.87453 | 21242 ft | 462 kts | 116° |
| 2026-05-07 18:31 | 50.47451 | 20.92113 | 20340 ft | 460 kts | 116° |
| 2026-05-07 18:31 | 50.46241 | 20.96731 | 19507 ft | 455 kts | 116° |
| 2026-05-07 18:31 | 50.45040 | 21.01311 | 18708 ft | 451 kts | 116° |
| 2026-05-07 18:31 | 50.43856 | 21.05824 | 17870 ft | 447 kts | 116° |
| 2026-05-07 18:32 | 50.42677 | 21.10305 | 17011 ft | 442 kts | 115° |
| 2026-05-07 18:32 | 50.41512 | 21.14723 | 16210 ft | 436 kts | 115° |
| 2026-05-07 18:32 | 50.40356 | 21.19092 | 15418 ft | 427 kts | 115° |
| 2026-05-07 18:32 | 50.39236 | 21.23324 | 14025 ft | 417 kts | 115° |
| 2026-05-07 18:33 | 50.38145 | 21.27426 | 12609 ft | 409 kts | 115° |
| 2026-05-07 18:33 | 50.37082 | 21.31413 | 12007 ft | 381 kts | 115° |
| 2026-05-07 18:33 | 50.36107 | 21.35078 | 11657 ft | 349 kts | 115° |
| 2026-05-07 18:33 | 50.35212 | 21.38437 | 11424 ft | 320 kts | 115° |
| 2026-05-07 18:34 | 50.34375 | 21.41565 | 10928 ft | 305 kts | 115° |
| 2026-05-07 18:34 | 50.33563 | 21.44583 | 10368 ft | 297 kts | 115° |
| 2026-05-07 18:34 | 50.32770 | 21.47518 | 10141 ft | 293 kts | 116° |
| 2026-05-07 18:34 | 50.31986 | 21.50415 | 9923 ft | 292 kts | 116° |
| 2026-05-07 18:35 | 50.31192 | 21.53347 | 10001 ft | 296 kts | 115° |
| 2026-05-07 18:35 | 50.30393 | 21.56301 | 10000 ft | 294 kts | 115° |
| 2026-05-07 18:35 | 50.29599 | 21.59243 | 9984 ft | 293 kts | 115° |
| 2026-05-07 18:35 | 50.28724 | 21.62095 | 9961 ft | 291 kts | 124° |
| 2026-05-07 18:36 | 50.27647 | 21.64771 | 9852 ft | 291 kts | 125° |
| 2026-05-07 18:36 | 50.26561 | 21.67444 | 9733 ft | 291 kts | 125° |
| 2026-05-07 18:36 | 50.25477 | 21.70103 | 9623 ft | 290 kts | 125° |
| 2026-05-07 18:36 | 50.24390 | 21.72763 | 9507 ft | 290 kts | 125° |
| 2026-05-07 18:37 | 50.23302 | 21.75413 | 9390 ft | 290 kts | 125° |
| 2026-05-07 18:37 | 50.22216 | 21.78061 | 9279 ft | 289 kts | 125° |
| 2026-05-07 18:37 | 50.21147 | 21.80670 | 9168 ft | 289 kts | 125° |
| 2026-05-07 18:37 | 50.20136 | 21.83387 | 9056 ft | 291 kts | 116° |
| 2026-05-07 18:38 | 50.19560 | 21.86421 | 8888 ft | 294 kts | 100° |
| 2026-05-07 18:38 | 50.19458 | 21.89602 | 8638 ft | 294 kts | 92° |
| 2026-05-07 18:38 | 50.19428 | 21.92776 | 8401 ft | 293 kts | 92° |
| 2026-05-07 18:38 | 50.19388 | 21.95948 | 8164 ft | 291 kts | 92° |
| 2026-05-07 18:39 | 50.19344 | 21.99103 | 7922 ft | 291 kts | 92° |
| 2026-05-07 18:39 | 50.19300 | 22.02261 | 7560 ft | 290 kts | 92° |
| 2026-05-07 18:39 | 50.19258 | 22.05404 | 7224 ft | 290 kts | 92° |
| 2026-05-07 18:39 | 50.19218 | 22.08507 | 6892 ft | 289 kts | 92° |
| 2026-05-07 18:40 | 50.19179 | 22.11635 | 6555 ft | 288 kts | 92° |
| 2026-05-07 18:40 | 50.19139 | 22.14752 | 6215 ft | 287 kts | 92° |
| 2026-05-07 18:40 | 50.19096 | 22.17854 | 5859 ft | 287 kts | 92° |
| 2026-05-07 18:40 | 50.19044 | 22.20960 | 5564 ft | 285 kts | 92° |
| 2026-05-07 18:41 | 50.18989 | 22.24024 | 5125 ft | 281 kts | 92° |
| 2026-05-07 18:41 | 50.18935 | 22.27011 | 4829 ft | 266 kts | 93° |
| 2026-05-07 18:41 | 50.18598 | 22.29714 | 4697 ft | 249 kts | 118° |
| 2026-05-07 18:41 | 50.17548 | 22.31746 | 4568 ft | 244 kts | 146° |
| 2026-05-07 18:42 | 50.16006 | 22.32751 | 4111 ft | 240 kts | 176° |
| 2026-05-07 18:42 | 50.14353 | 22.32719 | 3675 ft | 237 kts | 185° |
| 2026-05-07 18:42 | 50.12754 | 22.32582 | 3566 ft | 223 kts | 190° |
| 2026-05-07 18:42 | 50.11395 | 22.31644 | 3494 ft | 212 kts | 224° |
| 2026-05-07 18:43 | 50.10651 | 22.29722 | 3348 ft | 210 kts | 258° |
| 2026-05-07 18:43 | 50.10598 | 22.27454 | 3174 ft | 210 kts | 270° |
| 2026-05-07 18:43 | 50.10649 | 22.25181 | 3052 ft | 210 kts | 271° |
| 2026-05-07 18:43 | 50.10690 | 22.22963 | 2950 ft | 195 kts | 270° |
| 2026-05-07 18:44 | 50.10722 | 22.20951 | 2742 ft | 178 kts | 270° |
| 2026-05-07 18:44 | 50.10750 | 22.19100 | 2543 ft | 163 kts | 270° |
| 2026-05-07 18:44 | 50.10775 | 22.17400 | 2323 ft | 153 kts | 271° |
| 2026-05-07 18:44 | 50.10799 | 22.15769 | 2125 ft | 149 kts | 271° |
| 2026-05-07 18:45 | 50.10822 | 22.14178 | 1928 ft | 149 kts | 271° |
| 2026-05-07 18:45 | 50.10845 | 22.12569 | 1731 ft | 148 kts | 271° |
| 2026-05-07 18:45 | 50.10869 | 22.10965 | 1522 ft | 148 kts | 271° |
| 2026-05-07 18:45 | 50.10891 | 22.09365 | 1321 ft | 148 kts | 271° |
| 2026-05-07 18:46 | 50.10914 | 22.07768 | 1121 ft | 147 kts | 272° |
| 2026-05-07 18:46 | 50.10937 | 22.06177 | 919 ft | 147 kts | 272° |
| 2026-05-07 18:46 | 50.10957 | 22.04581 | 727 ft | 147 kts | 272° |
| 2026-05-07 18:46 | 50.10989 | 22.03117 | 694 ft | 93 kts | 273° |
| 2026-05-07 18:47 | 50.10991 | 22.02561 | 690 ft | 33 kts | 270° |
| 2026-05-07 18:47 | 50.11005 | 22.02330 | 693 ft | 16 kts | 303° |
| 2026-05-07 18:47 | 50.11101 | 22.02300 | 691 ft | 0 kts | 1° |
| 2026-05-07 18:47 | 50.11104 | 22.02300 | 691 ft | 0 kts | 1° |
| 2026-05-07 18:48 | 50.11140 | 22.02301 | 686 ft | 14 kts | 1° |
| 2026-05-07 18:48 | 50.11249 | 22.02306 | 688 ft | 16 kts | 1° |
| 2026-05-07 18:49 | 50.11327 | 22.02377 | 691 ft | 13 kts | 76° |
| 2026-05-07 18:49 | 50.11337 | 22.02512 | 691 ft | 11 kts | 52° |
| 2026-05-07 18:49 | 50.11409 | 22.02535 | 689 ft | 6 kts | 2° |
| 2026-05-07 18:49 | 50.11417 | 22.02535 | 687 ft | 0 kts | 360° |